Time;durP1;ratioP1;P1;durP2;ratioP2;P2;SDS_P1;SDS_P2;PMS_P1;PMS_P2;Temp;Humidity;BMP_temperature;BMP_pressure;BME280_temperature;BME280_humidity;BME280_pressure;Samples;Min_cycle;Max_cycle;Signal;HPM_P1;HPM_P2
2022/08/08 00:02:11;;;;;;;;;3.00;3.00;;;;;22.82;34.66;101696.94;5075377;28;46340;-90
2022/08/08 00:04:45;;;;;;;;;3.00;2.25;;;;;22.57;34.49;101656.75;5092325;27;45905;-91
2022/08/08 00:07:28;;;;;;;;;3.00;2.25;;;;;22.78;34.53;101695.13;5075752;28;45527;-89
2022/08/08 00:10:12;;;;;;;;;3.00;3.00;;;;;22.60;34.75;101670.13;5075903;28;45303;-82
2022/08/08 00:12:54;;;;;;;;;3.75;3.75;;;;;22.71;35.00;101693.34;5076640;28;46331;-88
2022/08/08 00:15:26;;;;;;;;;2.00;2.00;;;;;22.55;35.13;101671.91;5075075;28;45866;-91
2022/08/08 00:18:00;;;;;;;;;2.00;2.00;;;;;22.42;35.37;101654.06;5076916;28;45378;-82
2022/08/08 00:20:42;;;;;;;;;2.00;2.00;;;;;22.48;35.41;101662.09;5076126;28;45389;-87
2022/08/08 00:23:18;;;;;;;;;2.75;2.75;;;;;22.48;35.70;101659.41;5076740;28;45445;-91
2022/08/08 00:25:50;;;;;;;;;2.00;2.00;;;;;22.59;35.73;101686.19;5076083;28;45827;-88
2022/08/08 00:28:18;;;;;;;;;2.50;2.50;;;;;22.55;36.02;101685.31;5075222;28;45305;-82
2022/08/08 00:30:52;;;;;;;;;4.00;4.00;;;;;22.23;35.96;101642.44;5075104;28;45366;-82
2022/08/08 00:33:22;;;;;;;;;4.00;4.00;;;;;22.30;35.77;101646.00;5076366;28;45536;-87
2022/08/08 00:35:50;;;;;;;;;3.50;3.00;;;;;22.46;36.35;101687.97;5075662;28;46335;-84
2022/08/08 00:38:37;;;;;;;;;3.75;3.50;;;;;22.44;36.32;101679.06;5076110;28;45297;-85
2022/08/08 00:41:59;;;;;;;;;5.00;3.50;;;;;22.39;36.37;101679.03;5075822;28;45522;-86
2022/08/08 00:44:49;;;;;;;;;3.75;3.75;;;;;22.36;36.87;101679.06;5053071;28;47407;-91
2022/08/08 00:47:35;;;;;;;;;3.50;3.25;;;;;22.31;36.52;101675.47;5053159;28;46421;-87
2022/08/08 00:50:34;;;;;;;;;3.75;3.75;;;;;22.28;36.88;101675.47;5070317;28;45436;-89
2022/08/08 00:53:26;;;;;;;;;4.00;4.00;;;;;22.14;37.05;101658.50;5076323;28;45326;-87
2022/08/08 00:56:10;;;;;;;;;3.00;3.00;;;;;22.23;36.96;101671.91;5074351;28;48356;-84
2022/08/08 00:58:57;;;;;;;;;4.50;3.50;;;;;22.21;36.80;101673.66;5091931;27;45891;-90
2022/08/08 01:01:38;;;;;;;;;2.25;2.25;;;;;22.01;37.33;101636.09;5076165;28;45416;-86
2022/08/08 01:04:36;;;;;;;;;3.00;3.00;;;;;21.93;37.49;101631.66;5092003;27;45410;-89
2022/08/08 01:07:20;;;;;;;;;4.00;3.50;;;;;22.10;37.79;101665.59;5091592;27;46653;-89
2022/08/08 01:10:16;;;;;;;;;4.00;4.00;;;;;22.07;37.57;101670.94;5076196;28;45351;-92
2022/08/08 01:13:09;;;;;;;;;3.00;3.00;;;;;22.03;37.94;101666.47;5076356;28;45428;-91
2022/08/08 01:16:01;;;;;;;;;4.00;4.00;;;;;22.01;37.63;101662.88;5091825;27;45584;-86
2022/08/08 01:18:44;;;;;;;;;4.00;4.00;;;;;21.96;38.17;101656.63;5091479;27;46849;-91
2022/08/08 01:21:30;;;;;;;;;4.00;4.00;;;;;21.93;37.81;101655.75;5091375;27;45400;-89
2022/08/08 01:24:20;;;;;;;;;4.00;4.00;;;;;21.90;38.31;101656.63;5074708;28;45378;-89
2022/08/08 01:27:05;;;;;;;;;5.75;4.75;;;;;21.89;38.51;101652.16;5091339;27;45461;-90
2022/08/08 01:29:41;;;;;;;;;4.00;3.75;;;;;21.76;38.43;101632.47;5091572;27;47151;-91
2022/08/08 01:32:25;;;;;;;;;4.00;3.50;;;;;21.83;38.20;101646.78;5075545;28;45591;-89
2022/08/08 01:34:57;;;;;;;;;4.00;3.50;;;;;21.80;38.73;101658.38;5073935;28;45523;-90
2022/08/08 01:37:50;;;;;;;;;4.25;4.25;;;;;21.78;38.43;101652.13;5075219;28;45299;-88
2022/08/08 01:40:33;;;;;;;;;4.00;4.00;;;;;21.76;38.92;101655.69;5074242;28;45285;-85
2022/08/08 01:43:20;;;;;;;;;6.00;4.00;;;;;21.73;38.99;101653.91;5074823;27;45455;-84
2022/08/08 01:46:00;;;;;;;;;5.50;4.75;;;;;21.61;39.00;101646.72;5075441;28;45545;-89
2022/08/08 01:48:28;;;;;;;;;4.00;4.00;;;;;21.69;39.20;101654.78;5075086;28;45522;-83
2022/08/08 01:51:24;;;;;;;;;4.00;4.00;;;;;21.66;38.92;101649.41;5074384;28;46795;-90
2022/08/08 01:54:08;;;;;;;;;5.00;4.00;;;;;21.62;39.17;101651.19;5074125;28;45712;-85
2022/08/08 01:57:14;;;;;;;;;5.00;4.00;;;;;21.44;39.62;101627.03;5090839;27;45503;-87
2022/08/08 01:59:52;;;;;;;;;3.00;3.00;;;;;21.40;39.69;101625.25;5065543;28;45473;-83
2022/08/08 02:02:56;;;;;;;;;4.00;4.00;;;;;21.56;39.50;101653.81;5074627;28;45435;-86
2022/08/08 02:05:46;;;;;;;;;4.00;4.00;;;;;21.53;39.61;101655.63;5072612;28;45303;-82
2022/08/08 02:08:30;;;;;;;;;5.00;4.00;;;;;21.43;39.28;101643.06;5074557;28;45278;-84
2022/08/08 02:11:09;;;;;;;;;6.00;6.00;;;;;21.48;39.81;101654.72;5074584;28;45470;-84
2022/08/08 02:13:40;;;;;;;;;5.25;5.00;;;;;21.44;39.73;101651.13;5073991;28;46297;-88
2022/08/08 02:16:16;;;;;;;;;4.00;4.00;;;;;21.29;40.10;101635.84;5074618;28;45448;-91
2022/08/08 02:18:52;;;;;;;;;3.75;3.00;;;;;21.32;39.78;101643.91;5073643;28;45530;-91
2022/08/08 02:24:24;;;;;;;;;5.00;4.00;;;;;21.14;40.00;101617.06;5074307;28;45394;-91
2022/08/08 02:27:13;;;;;;;;;4.00;3.00;;;;;21.24;39.98;101634.06;5073122;27;45946;-88
2022/08/08 02:30:13;;;;;;;;;4.75;4.25;;;;;21.25;40.25;101636.72;5073222;28;45557;-88
2022/08/08 02:32:59;;;;;;;;;5.50;5.00;;;;;21.28;40.19;101638.50;5062025;28;45523;-85
2022/08/08 02:35:25;;;;;;;;;5.00;5.00;;;;;21.26;40.74;101642.97;5089783;27;47297;-82
2022/08/08 02:38:24;;;;;;;;;5.00;5.00;;;;;21.24;40.47;101645.63;5074396;28;45464;-89
2022/08/08 02:40:58;;;;;;;;;3.25;3.00;;;;;21.20;40.08;101643.84;5074358;28;45356;-86
2022/08/08 02:43:33;;;;;;;;;5.00;5.00;;;;;21.18;40.56;101644.69;5090239;27;45357;-85
2022/08/08 02:46:20;;;;;;;;;5.00;5.00;;;;;21.16;40.55;101643.81;5089778;27;47096;-88
2022/08/08 02:48:59;;;;;;;;;5.00;4.25;;;;;21.13;40.90;101653.59;5089816;27;46018;-89
2022/08/08 02:52:01;;;;;;;;;5.50;5.50;;;;;21.00;41.09;101634.81;5074460;28;45381;-90
2022/08/08 02:54:56;;;;;;;;;5.50;4.25;;;;;20.86;40.46;101611.56;5078011;27;45328;-90
2022/08/08 02:57:34;;;;;;;;;6.00;6.00;;;;;21.07;40.96;101648.19;5076516;28;48245;-86
2022/08/08 03:00:14;;;;;;;;;5.50;5.00;;;;;21.04;41.01;101658.91;5077938;28;45389;-88
2022/08/08 03:03:17;;;;;;;;;6.75;5.25;;;;;21.01;41.29;101650.84;5077968;28;45471;-90
2022/08/08 03:06:04;;;;;;;;;5.50;5.00;;;;;20.99;41.31;101655.31;5076007;28;45521;-89
2022/08/08 03:09:05;;;;;;;;;5.25;5.25;;;;;20.95;41.14;101653.47;5077653;28;46159;-87
2022/08/08 03:11:58;;;;;;;;;6.75;6.00;;;;;20.92;41.78;101652.56;5077698;28;45885;-88
2022/08/08 03:15:01;;;;;;;;;6.00;6.00;;;;;20.90;41.64;101657.00;5093680;27;45362;-91
2022/08/08 03:17:38;;;;;;;;;6.00;6.00;;;;;20.86;41.48;101654.31;5076703;28;45607;-90
2022/08/08 03:20:04;;;;;;;;;5.75;5.25;;;;;20.82;41.62;101652.50;5077121;28;45507;-90
2022/08/08 03:22:30;;;;;;;;;6.00;6.00;;;;;20.80;41.43;101661.41;5093449;27;45913;-88
2022/08/08 03:25:01;;;;;;;;;5.50;5.50;;;;;20.74;42.03;101647.97;5077707;28;45401;-87
2022/08/08 03:27:37;;;;;;;;;6.50;5.75;;;;;20.76;41.97;101646.22;5093202;27;45602;-89
2022/08/08 03:30:08;;;;;;;;;5.00;5.00;;;;;20.74;42.18;101659.59;5076182;28;47905;-85
2022/08/08 03:35:20;;;;;;;;;7.00;6.50;;;;;20.63;42.30;101647.00;5077300;28;45256;-90
2022/08/08 03:37:45;;;;;;;;;6.00;5.75;;;;;20.63;42.45;101653.25;5077483;28;45242;-92
2022/08/08 03:40:11;;;;;;;;;6.75;5.75;;;;;20.58;42.37;101647.88;5077330;27;46485;-85
2022/08/08 03:42:37;;;;;;;;;7.00;6.00;;;;;20.56;42.30;101654.97;5076991;28;45540;-88
2022/08/08 03:45:24;;;;;;;;;6.25;6.25;;;;;20.63;42.20;101663.03;5077131;28;45449;-86
2022/08/08 03:48:04;;;;;;;;;5.75;5.75;;;;;20.55;42.58;101661.22;5076908;27;45619;-85
2022/08/08 03:50:31;;;;;;;;;7.25;7.25;;;;;20.48;42.55;101646.00;5076473;27;46337;-89
2022/08/08 03:53:08;;;;;;;;;7.50;6.75;;;;;20.51;42.53;101662.06;5075684;28;46083;-84
2022/08/08 03:55:38;;;;;;;;;5.00;5.00;;;;;20.53;42.75;101665.63;5076769;27;45548;-92
2022/08/08 03:58:03;;;;;;;;;6.00;5.75;;;;;20.38;42.69;101654.78;5092606;27;45571;-85
2022/08/08 04:00:29;;;;;;;;;6.67;6.00;;;;;20.45;42.68;101667.31;5076391;27;51317;-90
2022/08/08 04:02:57;;;;;;;;;7.00;6.00;;;;;20.48;43.25;101674.47;5076474;27;45791;-90
2022/08/08 04:05:28;;;;;;;;;7.00;6.25;;;;;20.14;42.84;101611.84;5091575;27;45398;-90
2022/08/08 04:07:53;;;;;;;;;4.50;4.50;;;;;20.40;43.28;101666.38;5076736;28;45465;-85
2022/08/08 04:10:19;;;;;;;;;5.25;5.25;;;;;20.34;43.41;101656.56;5076549;28;46510;-88
2022/08/08 04:12:44;;;;;;;;;6.00;6.00;;;;;20.09;43.32;101615.34;5075326;28;45367;-87
2022/08/08 04:15:10;;;;;;;;;7.00;7.00;;;;;20.13;43.54;101620.75;5076254;28;45329;-87
2022/08/08 04:17:35;;;;;;;;;6.00;5.00;;;;;20.31;43.27;101664.53;5092278;27;45465;-85
2022/08/08 04:20:01;;;;;;;;;5.00;5.00;;;;;20.28;43.78;101653.81;5091919;27;46979;-86
2022/08/08 04:22:27;;;;;;;;;8.25;8.00;;;;;20.27;43.29;101664.47;5076168;28;45388;-86
2022/08/08 04:24:53;;;;;;;;;8.25;8.25;;;;;20.05;43.51;101626.91;5076318;28;45438;-87
2022/08/08 04:27:19;;;;;;;;;7.50;7.00;;;;;20.32;43.56;101668.97;5076290;28;45538;-86
2022/08/08 04:29:45;;;;;;;;;6.50;6.50;;;;;20.32;43.71;101676.97;5076254;28;45457;-84
2022/08/08 04:32:13;;;;;;;;;6.75;6.75;;;;;20.08;43.74;101632.25;5075135;28;45541;-90
2022/08/08 04:34:42;;;;;;;;;7.25;7.00;;;;;20.17;43.35;101659.94;5075941;28;45278;-90
2022/08/08 04:37:08;;;;;;;;;8.25;7.25;;;;;20.27;43.69;101681.38;5092056;27;45683;-87
2022/08/08 04:39:33;;;;;;;;;6.25;5.75;;;;;20.21;43.88;101684.00;5074622;28;47291;-89
2022/08/08 04:41:59;;;;;;;;;6.50;6.25;;;;;20.17;43.72;101674.16;5076527;28;45604;-89
2022/08/08 04:44:25;;;;;;;;;7.00;7.00;;;;;20.22;44.05;101692.91;5076190;28;45333;-91
2022/08/08 04:46:50;;;;;;;;;7.00;6.50;;;;;20.19;44.09;101684.84;5074909;28;45457;-90
2022/08/08 04:49:15;;;;;;;;;5.75;5.75;;;;;20.03;43.49;101660.69;5075881;28;46388;-90
2022/08/08 04:51:41;;;;;;;;;7.50;6.75;;;;;20.09;44.24;101673.19;5076112;28;45285;-89
2022/08/08 04:54:06;;;;;;;;;6.25;5.75;;;;;19.97;43.85;101655.28;5076207;28;45424;-89
2022/08/08 04:56:32;;;;;;;;;5.75;4.75;;;;;20.07;44.38;101672.28;5075907;28;45540;-88
2022/08/08 04:58:57;;;;;;;;;6.25;6.25;;;;;19.96;44.55;101655.28;5075897;28;46335;-89
2022/08/08 05:01:23;;;;;;;;;7.00;6.75;;;;;20.05;44.52;101671.38;5075850;27;45275;-91
2022/08/08 05:03:48;;;;;;;;;8.50;7.75;;;;;19.82;44.07;101640.00;5076093;28;45225;-90
2022/08/08 05:06:14;;;;;;;;;7.00;7.00;;;;;19.89;44.72;101653.41;5075569;28;45564;-91
2022/08/08 05:08:41;;;;;;;;;6.00;6.00;;;;;19.93;44.41;101661.47;5075649;28;45658;-92
2022/08/08 05:11:06;;;;;;;;;9.50;6.75;;;;;19.80;44.89;101636.44;5075820;28;45464;-89
2022/08/08 05:13:32;;;;;;;;;6.50;6.50;;;;;19.93;44.48;101666.78;5076006;28;45556;-92
2022/08/08 05:15:57;;;;;;;;;8.50;8.50;;;;;20.05;44.91;101690.97;5090639;27;45495;-92
2022/08/08 05:18:23;;;;;;;;;7.25;7.00;;;;;19.91;45.09;101663.22;5075464;28;45436;-88
2022/08/08 05:20:48;;;;;;;;;7.00;7.00;;;;;19.94;44.96;101673.91;5074934;28;58331;-91
2022/08/08 05:23:14;;;;;;;;;6.50;6.25;;;;;20.00;44.56;101689.09;5075746;28;46017;-91
2022/08/08 05:25:40;;;;;;;;;6.75;6.75;;;;;19.90;44.70;101671.19;5075930;28;45780;-91
2022/08/08 05:28:05;;;;;;;;;7.25;7.25;;;;;20.00;44.72;101683.75;5075660;28;46169;-90
2022/08/08 05:30:31;;;;;;;;;7.75;7.25;;;;;20.01;44.63;101693.56;5075547;28;45488;-90
2022/08/08 05:32:56;;;;;;;;;9.00;8.25;;;;;19.78;45.04;101655.97;5075596;28;45356;-85
2022/08/08 05:35:22;;;;;;;;;7.75;7.75;;;;;19.91;44.85;101679.25;5074911;28;45483;-82
2022/08/08 05:37:53;;;;;;;;;7.50;7.00;;;;;19.86;45.22;101686.28;5074996;27;45367;-86
2022/08/08 05:40:19;;;;;;;;;5.25;5.25;;;;;19.99;45.19;101706.00;5075449;28;45921;-88
2022/08/08 05:42:48;;;;;;;;;8.50;8.50;;;;;19.96;45.14;101708.66;5075436;28;45462;-82
2022/08/08 05:45:13;;;;;;;;;8.00;8.00;;;;;19.89;44.69;101693.44;5075417;28;45496;-90
2022/08/08 05:47:40;;;;;;;;;7.00;7.00;;;;;19.99;44.64;101714.88;5075503;28;45525;-84
2022/08/08 05:50:06;;;;;;;;;8.00;8.00;;;;;20.08;44.96;101733.69;5074538;28;45931;-88
2022/08/08 05:52:36;;;;;;;;;8.50;8.00;;;;;20.06;44.97;101723.88;5075196;28;45518;-90
2022/08/08 05:55:05;;;;;;;;;7.00;6.00;;;;;20.13;45.17;101740.84;5074967;28;45450;-88
2022/08/08 05:57:34;;;;;;;;;9.75;9.50;;;;;20.14;44.95;101735.53;5074760;28;47144;-87
2022/08/08 06:00:03;;;;;;;;;8.00;8.00;;;;;20.02;45.33;101712.28;5074844;28;45387;-91
2022/08/08 06:05:17;;;;;;;;;7.00;7.00;;;;;20.20;45.37;101724.94;5074502;28;45318;-92
2022/08/08 06:07:45;;;;;;;;;7.25;6.50;;;;;20.10;45.31;101704.34;5075011;28;46371;-89
2022/08/08 06:10:11;;;;;;;;;7.00;7.00;;;;;20.03;44.75;101703.38;5074797;28;46296;-92
2022/08/08 06:12:37;;;;;;;;;8.75;8.00;;;;;20.13;45.25;101712.38;5075278;28;45449;-87
2022/08/08 06:15:05;;;;;;;;;6.00;6.00;;;;;20.16;45.54;101716.88;5090697;27;45365;-90
2022/08/08 06:17:33;;;;;;;;;11.50;9.75;;;;;20.19;45.30;101738.25;5074712;28;45531;-85
2022/08/08 06:20:01;;;;;;;;;8.25;8.25;;;;;20.13;45.46;101711.50;5090075;27;45460;-88
2022/08/08 06:22:26;;;;;;;;;7.00;7.00;;;;;20.16;45.18;101715.09;5075247;27;45283;-91
2022/08/08 06:24:52;;;;;;;;;8.75;8.00;;;;;20.34;45.24;101746.41;5075844;28;45532;-91
2022/08/08 06:27:30;;;;;;;;;6.25;6.25;;;;;20.26;45.25;101729.44;5073165;28;46505;-87
2022/08/08 06:30:04;;;;;;;;;8.00;7.25;;;;;20.01;45.25;101688.25;5075211;28;46317;-92
2022/08/08 06:32:30;;;;;;;;;7.25;6.50;;;;;20.24;45.16;101720.50;5075094;28;45453;-91
2022/08/08 06:35:00;;;;;;;;;10.00;8.25;;;;;20.49;45.44;101761.72;5074537;27;45694;-90
2022/08/08 06:37:30;;;;;;;;;8.25;7.25;;;;;20.38;44.92;101729.53;5074659;28;46647;-91
2022/08/08 06:40:01;;;;;;;;;9.50;8.25;;;;;20.26;44.79;101716.97;5090581;27;45487;-92
2022/08/08 06:42:32;;;;;;;;;9.00;7.75;;;;;20.51;45.04;101755.53;5074943;28;45330;-87
2022/08/08 06:45:00;;;;;;;;;9.25;8.25;;;;;20.35;45.02;101722.41;5074671;28;45423;-91
2022/08/08 06:47:25;;;;;;;;;9.00;8.25;;;;;20.46;45.47;101733.19;5074799;28;45371;-92
2022/08/08 06:49:51;;;;;;;;;9.50;9.25;;;;;20.58;45.09;101749.38;5074848;28;45643;-91
2022/08/08 06:52:17;;;;;;;;;9.00;8.00;;;;;20.53;45.34;101742.19;5074724;28;45444;-88
2022/08/08 06:54:43;;;;;;;;;9.25;8.75;;;;;20.45;45.18;101718.06;5074223;28;45639;-91
2022/08/08 06:57:09;;;;;;;;;8.00;7.25;;;;;20.65;44.98;101749.44;5074076;28;45598;-93
2022/08/08 06:59:36;;;;;;;;;8.00;7.50;;;;;20.73;44.95;101759.28;5074240;27;45302;-90
2022/08/08 07:02:03;;;;;;;;;9.00;9.00;;;;;20.69;45.10;101740.56;5090353;27;45353;-89
2022/08/08 07:04:53;;;;;;;;;8.50;8.00;;;;;20.88;44.78;101769.22;5074100;28;45573;-91
2022/08/08 07:07:31;;;;;;;;;11.50;9.25;;;;;20.93;45.10;101774.59;5074214;28;45465;-90
2022/08/08 07:10:08;;;;;;;;;7.75;7.25;;;;;20.85;44.89;101753.19;5074354;28;45350;-90
2022/08/08 07:12:41;;;;;;;;;9.75;8.75;;;;;21.02;44.32;101775.59;5074226;28;45382;-90
2022/08/08 07:15:12;;;;;;;;;9.75;9.00;;;;;20.97;44.75;101766.63;5074054;28;45544;-90
2022/08/08 07:17:48;;;;;;;;;8.00;8.00;;;;;21.01;44.78;101762.22;5073792;28;46297;-90
2022/08/08 07:20:25;;;;;;;;;8.00;8.00;;;;;20.86;44.18;101728.25;5074043;28;45428;-89
2022/08/08 07:23:09;;;;;;;;;10.50;10.00;;;;;21.17;44.06;101785.50;5074003;28;45507;-90
2022/08/08 07:25:39;;;;;;;;;9.50;9.00;;;;;20.97;44.25;101750.59;5074073;28;45476;-90
2022/08/08 07:28:14;;;;;;;;;7.25;7.00;;;;;20.92;43.97;101740.75;5073893;28;45594;-87
2022/08/08 07:30:41;;;;;;;;;8.50;6.50;;;;;21.06;44.26;101755.13;5089723;27;45928;-92
2022/08/08 07:33:10;;;;;;;;;8.75;8.25;;;;;21.21;44.56;101778.41;5073971;28;45432;-88
2022/08/08 07:35:37;;;;;;;;;8.25;8.00;;;;;21.15;43.98;101760.53;5073621;28;45547;-89
2022/08/08 07:38:03;;;;;;;;;7.75;6.25;;;;;21.23;44.07;101777.56;5073974;28;45677;-90
2022/08/08 07:40:28;;;;;;;;;8.75;8.00;;;;;21.25;43.97;101769.53;5077286;28;45941;-88
2022/08/08 07:42:54;;;;;;;;;7.75;7.75;;;;;21.20;43.78;101757.91;5078123;27;45326;-91
2022/08/08 07:45:20;;;;;;;;;8.50;8.50;;;;;21.38;43.56;101785.72;5078138;28;45456;-92
2022/08/08 07:47:46;;;;;;;;;10.75;9.25;;;;;21.51;44.02;101801.81;5076252;28;48375;-92
2022/08/08 07:50:11;;;;;;;;;8.25;7.50;;;;;21.41;44.00;101787.50;5075600;28;45473;-87
2022/08/08 07:52:38;;;;;;;;;10.00;9.00;;;;;21.39;43.72;101770.56;5077241;28;45358;-88
2022/08/08 07:55:12;;;;;;;;;7.25;7.25;;;;;21.41;43.47;101778.56;5077161;28;45391;-91
2022/08/08 07:57:53;;;;;;;;;10.75;10.00;;;;;21.65;43.46;101805.47;5076871;28;45431;-89
2022/08/08 08:00:20;;;;;;;;;9.25;9.00;;;;;21.52;43.28;101774.19;5077244;27;45854;-92
2022/08/08 08:02:50;;;;;;;;;9.00;8.50;;;;;21.60;43.38;101784.06;5076041;28;45374;-90
2022/08/08 08:05:21;;;;;;;;;9.25;9.00;;;;;21.76;43.11;101797.50;5076771;27;45389;-92
2022/08/08 08:07:52;;;;;;;;;8.00;8.00;;;;;21.69;43.14;101782.31;5092579;27;48424;-92
2022/08/08 08:10:19;;;;;;;;;8.00;8.00;;;;;21.66;42.93;101768.91;5076597;28;45863;-88
2022/08/08 08:12:56;;;;;;;;;7.00;7.00;;;;;21.81;43.13;101785.94;5076989;28;45413;-89
2022/08/08 08:15:25;;;;;;;;;7.25;7.00;;;;;21.82;42.89;101785.06;5076664;28;45433;-89
2022/08/08 08:17:57;;;;;;;;;8.50;7.75;;;;;21.96;42.74;101798.50;5076765;28;45549;-88
2022/08/08 08:20:27;;;;;;;;;6.50;5.50;;;;;22.03;42.63;101794.97;5075152;28;46002;-90
2022/08/08 08:22:52;;;;;;;;;6.75;6.50;;;;;21.93;42.73;101768.16;5077117;28;45299;-88
2022/08/08 08:25:18;;;;;;;;;6.00;6.00;;;;;22.02;42.48;101777.13;5076625;28;45336;-91
2022/08/08 08:27:43;;;;;;;;;8.25;7.75;;;;;22.15;42.36;101795.03;5076533;28;45542;-91
2022/08/08 08:30:09;;;;;;;;;7.00;6.00;;;;;22.13;42.38;101780.78;5076469;28;45492;-90
2022/08/08 08:32:34;;;;;;;;;8.75;7.75;;;;;22.23;42.18;101787.06;5076581;28;46095;-90
2022/08/08 08:35:00;;;;;;;;;7.00;7.00;;;;;22.37;42.10;101800.50;5076433;28;47250;-90
2022/08/08 08:37:26;;;;;;;;;7.00;6.50;;;;;22.24;41.69;101778.13;5075995;27;45633;-92
2022/08/08 08:39:51;;;;;;;;;8.00;8.00;;;;;22.24;41.76;101762.06;5076930;27;45361;-92
2022/08/08 08:42:17;;;;;;;;;6.25;6.25;;;;;22.34;41.55;101757.63;5076491;28;45356;-91
2022/08/08 08:44:43;;;;;;;;;3.25;3.00;;;;;22.46;41.66;101784.41;5076825;28;45383;-89
2022/08/08 08:47:08;;;;;;;;;7.75;6.00;;;;;22.53;41.45;101783.56;5076033;28;46455;-89
2022/08/08 08:49:34;;;;;;;;;6.00;6.00;;;;;22.70;41.68;101801.44;5074766;28;45908;-90
2022/08/08 08:52:03;;;;;;;;;6.00;5.00;;;;;22.67;40.85;101786.25;5076080;27;45315;-91
2022/08/08 08:54:33;;;;;;;;;7.25;6.75;;;;;22.55;40.91;101760.31;5074998;28;45517;-90
2022/08/08 08:57:00;;;;;;;;;5.75;5.25;;;;;22.76;40.92;101780.00;5091847;27;47421;-89
2022/08/08 08:59:30;;;;;;;;;6.00;5.75;;;;;22.74;41.35;101771.06;5091764;27;45397;-89
2022/08/08 09:01:57;;;;;;;;;3.50;3.50;;;;;22.82;40.65;101785.38;5076322;28;45458;-86
2022/08/08 09:04:25;;;;;;;;;4.25;4.00;;;;;22.81;40.77;101755.00;5076297;28;45511;-90
2022/08/08 09:06:52;;;;;;;;;5.75;5.50;;;;;22.88;40.85;101758.56;5075594;27;46521;-89
2022/08/08 09:09:30;;;;;;;;;5.00;5.00;;;;;23.00;40.67;101766.63;5075977;28;45426;-91
2022/08/08 09:11:59;;;;;;;;;6.00;6.00;;;;;22.85;40.67;101731.75;5076056;28;45283;-89
2022/08/08 09:14:25;;;;;;;;;6.50;6.50;;;;;22.99;40.33;101740.72;5075743;27;45366;-92
2022/08/08 09:16:54;;;;;;;;;5.25;4.25;;;;;23.36;40.35;101788.97;5075765;28;45413;-91
2022/08/08 09:19:19;;;;;;;;;6.00;5.25;;;;;23.39;40.02;101778.22;5076492;28;46045;-92
2022/08/08 09:21:46;;;;;;;;;5.25;5.25;;;;;23.32;39.71;101745.16;5075493;27;45413;-92
2022/08/08 09:24:13;;;;;;;;;5.00;5.00;;;;;23.49;39.41;101771.94;5091854;27;45327;-90
2022/08/08 09:26:45;;;;;;;;;5.00;4.50;;;;;23.55;39.11;101774.63;5075508;28;45275;-91
2022/08/08 09:29:21;;;;;;;;;4.00;3.25;;;;;23.56;38.68;101767.47;5074331;28;45374;-88
2022/08/08 09:32:04;;;;;;;;;4.50;4.00;;;;;23.62;38.92;101768.34;5075788;28;45275;-89
2022/08/08 09:34:34;;;;;;;;;5.25;5.00;;;;;23.78;38.79;101779.94;5075860;28;45314;-92
2022/08/08 09:37:09;;;;;;;;;4.00;4.00;;;;;23.82;39.10;101780.84;5073885;28;47601;-91
2022/08/08 09:39:41;;;;;;;;;6.00;4.75;;;;;23.72;38.65;101749.56;5075580;27;45758;-89
2022/08/08 09:42:12;;;;;;;;;5.50;5.50;;;;;23.91;38.26;101786.19;5075858;27;45278;-91
2022/08/08 09:45:04;;;;;;;;;5.00;4.00;;;;;23.88;38.03;101770.06;5075624;28;45229;-92
2022/08/08 09:47:41;;;;;;;;;7.00;5.00;;;;;23.90;38.21;101760.22;5075049;28;46319;-92
2022/08/08 09:50:26;;;;;;;;;5.00;5.00;;;;;24.02;38.27;101772.69;5075230;28;45453;-92
2022/08/08 09:52:53;;;;;;;;;4.75;4.25;;;;;24.03;37.94;101780.75;5075520;28;45510;-90
2022/08/08 09:55:21;;;;;;;;;5.75;5.00;;;;;24.12;38.04;101771.75;5074611;28;45501;-89
2022/08/08 09:57:57;;;;;;;;;4.25;4.25;;;;;24.12;37.38;101769.06;5091191;27;46406;-91
2022/08/08 10:00:24;;;;;;;;;5.75;4.25;;;;;24.03;37.62;101734.19;5091238;27;46710;-89
2022/08/08 10:02:51;;;;;;;;;6.00;5.50;;;;;24.19;37.56;101752.03;5090614;27;45430;-92
2022/08/08 10:05:24;;;;;;;;;5.50;5.25;;;;;24.24;37.55;101744.84;5091068;27;45608;-91
2022/08/08 10:07:50;;;;;;;;;5.00;5.00;;;;;24.41;37.17;101763.56;5074684;28;45406;-93
2022/08/08 10:10:35;;;;;;;;;5.67;5.67;;;;;24.43;37.27;101762.69;5075299;28;45337;-92
2022/08/08 10:13:16;;;;;;;;;5.00;5.00;;;;;24.20;37.12;101710.81;5074964;27;45489;-90
2022/08/08 10:15:48;;;;;;;;;6.75;6.75;;;;;24.36;36.90;101741.22;5075026;28;45280;-88
2022/08/08 10:18:23;;;;;;;;;4.75;4.50;;;;;24.52;36.71;101750.06;5075648;28;46832;-91
2022/08/08 10:20:52;;;;;;;;;4.75;4.25;;;;;24.58;36.63;101752.69;5073533;27;45388;-89
2022/08/08 10:23:38;;;;;;;;;4.00;4.00;;;;;24.60;36.39;101738.34;5075025;27;45228;-91
2022/08/08 10:26:04;;;;;;;;;6.00;6.00;;;;;24.45;36.44;101696.34;5075275;27;45370;-90
2022/08/08 10:28:31;;;;;;;;;4.50;4.25;;;;;24.80;36.70;101753.44;5074640;28;47631;-91
2022/08/08 10:32:30;;;;;;;;;5.75;5.75;;;;;24.88;36.85;101743.53;5090268;27;46333;-91
2022/08/08 10:33:48;;;;;;;;;6.00;6.00;;;;;24.91;36.16;101741.66;5074747;28;45258;-92
2022/08/08 10:36:15;;;;;;;;;5.00;5.00;;;;;24.96;36.28;101739.84;5090223;27;45314;-90
2022/08/08 10:38:41;;;;;;;;;5.00;5.00;;;;;24.95;36.47;101731.78;5090501;27;47452;-90
2022/08/08 10:41:16;;;;;;;;;4.00;4.00;;;;;25.09;35.88;101740.66;5073360;28;45465;-91
2022/08/08 10:43:41;;;;;;;;;6.00;6.00;;;;;25.21;36.16;101753.09;5074999;28;45446;-91
2022/08/08 10:46:26;;;;;;;;;6.00;5.75;;;;;25.27;35.97;101750.38;5074453;28;45351;-91
2022/08/08 10:48:53;;;;;;;;;4.00;4.00;;;;;25.00;35.97;101696.78;5074366;28;46240;-92
2022/08/08 10:51:26;;;;;;;;;5.00;4.50;;;;;25.38;36.12;101750.25;5073969;28;45870;-91
2022/08/08 10:53:56;;;;;;;;;6.25;6.00;;;;;25.39;35.42;101738.56;5074721;27;45440;-90
2022/08/08 10:56:22;;;;;;;;;5.50;5.00;;;;;25.30;35.37;101717.13;5074813;28;45344;-91
2022/08/08 10:58:58;;;;;;;;;5.00;5.00;;;;;25.34;35.58;101705.44;5074204;28;45314;-90
2022/08/08 11:01:27;;;;;;;;;7.50;6.00;;;;;25.29;35.43;101696.50;5090612;27;45355;-90
2022/08/08 11:03:52;;;;;;;;;5.25;5.00;;;;;25.55;35.13;101729.41;5074589;28;45580;-90
2022/08/08 11:06:18;;;;;;;;;4.00;3.75;;;;;25.70;35.12;101734.59;5073914;27;45476;-88
2022/08/08 11:08:43;;;;;;;;;5.75;5.50;;;;;25.66;34.98;101727.47;5072870;28;48030;-92
2022/08/08 11:11:10;;;;;;;;;4.25;4.25;;;;;25.82;34.53;101732.72;5074151;28;45451;-90
2022/08/08 11:13:39;;;;;;;;;4.00;4.00;;;;;25.93;34.33;101741.53;5074944;27;45394;-91
2022/08/08 11:16:05;;;;;;;;;4.00;4.00;;;;;25.81;34.96;101712.06;5093503;27;45485;-90
2022/08/08 11:18:33;;;;;;;;;6.00;5.00;;;;;25.86;34.29;101710.19;5077824;28;45532;-92
2022/08/08 11:21:01;;;;;;;;;4.50;4.50;;;;;25.93;33.71;101712.78;5076132;28;45878;-88
2022/08/08 11:23:32;;;;;;;;;5.75;5.75;;;;;25.94;34.12;101700.22;5077973;28;45280;-88
2022/08/08 11:26:00;;;;;;;;;5.50;5.50;;;;;25.98;33.47;101693.88;5093303;27;45366;-92
2022/08/08 11:28:25;;;;;;;;;4.00;4.00;;;;;25.87;33.95;101664.41;5077211;28;45701;-93
2022/08/08 11:30:55;;;;;;;;;5.75;5.75;;;;;26.32;33.94;101731.13;5077432;28;45500;-91
2022/08/08 11:33:23;;;;;;;;;5.50;5.50;;;;;26.29;33.88;101726.66;5076141;28;45463;-90
2022/08/08 11:35:50;;;;;;;;;5.50;5.00;;;;;26.28;33.60;101705.13;5077345;27;45468;-90
2022/08/08 11:38:15;;;;;;;;;5.50;5.50;;;;;26.29;33.62;101706.91;5076099;27;47944;-92
2022/08/08 11:40:41;;;;;;;;;5.00;4.00;;;;;26.40;33.25;101721.09;5076120;28;45469;-89
2022/08/08 11:43:07;;;;;;;;;3.75;3.00;;;;;26.55;32.84;101723.63;5093523;27;45442;-89
2022/08/08 11:45:33;;;;;;;;;5.75;5.00;;;;;26.61;32.81;101728.00;5077546;28;45350;-93
2022/08/08 11:47:59;;;;;;;;;4.75;4.75;;;;;26.47;32.53;101683.28;5077112;27;46226;-91
2022/08/08 11:50:24;;;;;;;;;7.00;5.50;;;;;26.67;32.57;101707.22;5076222;28;45837;-90
2022/08/08 11:52:51;;;;;;;;;4.00;4.00;;;;;26.75;32.21;101705.28;5092607;27;45499;-89
2022/08/08 11:55:19;;;;;;;;;4.00;4.00;;;;;26.89;31.97;101710.41;5075880;28;45559;-87
2022/08/08 11:57:47;;;;;;;;;3.50;3.50;;;;;26.88;31.61;101694.28;5075994;28;47149;-91
2022/08/08 12:00:17;;;;;;;;;5.25;5.00;;;;;26.93;31.85;101693.25;5075881;28;45401;-90